sensor_id;sensor_type;location;lat;lon;timestamp;pressure;altitude;pressure_sealevel;temperature;humidity
46211;BME280;52144;48.040;-1.594;2022-12-18T00:01:23;101571.16;;;0.30;85.95
46211;BME280;52144;48.040;-1.594;2022-12-18T00:03:51;101570.94;;;0.07;87.01
46211;BME280;52144;48.040;-1.594;2022-12-18T00:06:20;101567.44;;;0.05;89.25
46211;BME280;52144;48.040;-1.594;2022-12-18T00:08:48;101577.91;;;0.05;88.56
46211;BME280;52144;48.040;-1.594;2022-12-18T00:11:19;101564.91;;;0.12;88.28
46211;BME280;52144;48.040;-1.594;2022-12-18T00:13:48;101569.31;;;0.16;87.97
46211;BME280;52144;48.040;-1.594;2022-12-18T00:16:19;101575.28;;;0.05;86.22
46211;BME280;52144;48.040;-1.594;2022-12-18T00:18:49;101566.44;;;-0.02;87.60
46211;BME280;52144;48.040;-1.594;2022-12-18T00:21:18;101572.50;;;-0.09;88.48
46211;BME280;52144;48.040;-1.594;2022-12-18T00:23:48;101564.66;;;-0.08;88.48
46211;BME280;52144;48.040;-1.594;2022-12-18T00:26:18;101560.59;;;0.22;86.59
46211;BME280;52144;48.040;-1.594;2022-12-18T00:28:46;101551.44;;;-0.17;87.87
46211;BME280;52144;48.040;-1.594;2022-12-18T00:31:17;101555.09;;;-0.06;88.91
46211;BME280;52144;48.040;-1.594;2022-12-18T00:33:46;101556.91;;;0.00;89.09
46211;BME280;52144;48.040;-1.594;2022-12-18T00:36:22;101556.19;;;0.18;87.20
46211;BME280;52144;48.040;-1.594;2022-12-18T00:38:50;101556.88;;;0.02;89.44
46211;BME280;52144;48.040;-1.594;2022-12-18T00:41:19;101555.16;;;0.04;88.76
46211;BME280;52144;48.040;-1.594;2022-12-18T00:44:01;101557.84;;;0.07;88.95
46211;BME280;52144;48.040;-1.594;2022-12-18T00:46:28;101554.34;;;0.06;88.92
46211;BME280;52144;48.040;-1.594;2022-12-18T00:48:56;101553.59;;;0.19;87.04
46211;BME280;52144;48.040;-1.594;2022-12-18T00:51:26;101548.03;;;-0.08;88.43
46211;BME280;52144;48.040;-1.594;2022-12-18T00:53:54;101544.44;;;-0.19;89.59
46211;BME280;52144;48.040;-1.594;2022-12-18T00:56:22;101539.44;;;0.04;88.39
46211;BME280;52144;48.040;-1.594;2022-12-18T00:58:50;101541.88;;;-0.13;89.46
46211;BME280;52144;48.040;-1.594;2022-12-18T01:01:18;101548.09;;;-0.02;89.11
46211;BME280;52144;48.040;-1.594;2022-12-18T01:03:47;101539.50;;;0.10;88.29
46211;BME280;52144;48.040;-1.594;2022-12-18T01:06:16;101531.31;;;-0.21;90.61
46211;BME280;52144;48.040;-1.594;2022-12-18T01:08:45;101525.38;;;-0.08;89.52
46211;BME280;52144;48.040;-1.594;2022-12-18T01:11:16;101520.06;;;-0.14;90.38
46211;BME280;52144;48.040;-1.594;2022-12-18T01:13:44;101516.63;;;-0.10;89.74
46211;BME280;52144;48.040;-1.594;2022-12-18T01:16:12;101518.88;;;-0.39;91.12
46211;BME280;52144;48.040;-1.594;2022-12-18T01:18:41;101517.72;;;0.12;87.72
46211;BME280;52144;48.040;-1.594;2022-12-18T01:21:10;101516.78;;;0.09;87.66
46211;BME280;52144;48.040;-1.594;2022-12-18T01:23:38;101518.75;;;0.31;86.76
46211;BME280;52144;48.040;-1.594;2022-12-18T01:26:10;101519.38;;;0.04;88.26
46211;BME280;52144;48.040;-1.594;2022-12-18T01:28:39;101507.16;;;0.05;89.23
46211;BME280;52144;48.040;-1.594;2022-12-18T01:31:12;101516.50;;;-0.19;88.23
46211;BME280;52144;48.040;-1.594;2022-12-18T01:33:40;101512.34;;;-0.02;88.16
46211;BME280;52144;48.040;-1.594;2022-12-18T01:36:13;101520.44;;;0.25;87.18
46211;BME280;52144;48.040;-1.594;2022-12-18T01:38:41;101531.84;;;0.30;87.50
46211;BME280;52144;48.040;-1.594;2022-12-18T01:41:11;101539.84;;;0.44;85.69
46211;BME280;52144;48.040;-1.594;2022-12-18T01:43:47;101548.56;;;0.41;85.32
46211;BME280;52144;48.040;-1.594;2022-12-18T01:46:17;101554.72;;;0.46;84.82
46211;BME280;52144;48.040;-1.594;2022-12-18T01:48:48;101551.31;;;0.53;83.73
46211;BME280;52144;48.040;-1.594;2022-12-18T01:51:18;101550.22;;;0.34;85.93
46211;BME280;52144;48.040;-1.594;2022-12-18T01:53:47;101544.00;;;0.22;86.69
46211;BME280;52144;48.040;-1.594;2022-12-18T01:56:18;101541.34;;;0.17;86.86
46211;BME280;52144;48.040;-1.594;2022-12-18T01:58:52;101523.81;;;0.11;87.91
46211;BME280;52144;48.040;-1.594;2022-12-18T02:01:22;101517.72;;;0.15;86.89
46211;BME280;52144;48.040;-1.594;2022-12-18T02:03:51;101525.69;;;0.26;87.08
46211;BME280;52144;48.040;-1.594;2022-12-18T02:06:22;101526.56;;;0.28;86.28
46211;BME280;52144;48.040;-1.594;2022-12-18T02:09:02;101534.56;;;0.40;85.35
46211;BME280;52144;48.040;-1.594;2022-12-18T02:11:40;101542.97;;;0.07;86.65
46211;BME280;52144;48.040;-1.594;2022-12-18T02:14:17;101545.81;;;0.30;86.21
46211;BME280;52144;48.040;-1.594;2022-12-18T02:16:52;101536.91;;;0.11;86.31
46211;BME280;52144;48.040;-1.594;2022-12-18T02:19:37;101533.50;;;0.22;86.31
46211;BME280;52144;48.040;-1.594;2022-12-18T02:22:16;101538.13;;;-0.35;89.49
46211;BME280;52144;48.040;-1.594;2022-12-18T02:24:57;101541.16;;;0.02;88.50
46211;BME280;52144;48.040;-1.594;2022-12-18T02:27:30;101533.44;;;0.12;87.00
46211;BME280;52144;48.040;-1.594;2022-12-18T02:30:00;101546.41;;;0.02;87.04
46211;BME280;52144;48.040;-1.594;2022-12-18T02:32:31;101542.25;;;0.22;85.97
46211;BME280;52144;48.040;-1.594;2022-12-18T02:35:03;101539.38;;;-0.06;87.23
46211;BME280;52144;48.040;-1.594;2022-12-18T02:37:33;101532.41;;;-0.01;87.93
46211;BME280;52144;48.040;-1.594;2022-12-18T02:40:04;101528.69;;;-0.24;88.89
46211;BME280;52144;48.040;-1.594;2022-12-18T02:42:33;101515.13;;;0.20;88.47
46211;BME280;52144;48.040;-1.594;2022-12-18T02:45:01;101518.34;;;-0.12;88.25
46211;BME280;52144;48.040;-1.594;2022-12-18T02:47:31;101513.03;;;-0.15;89.67
46211;BME280;52144;48.040;-1.594;2022-12-18T02:50:07;101503.59;;;-0.01;87.87
46211;BME280;52144;48.040;-1.594;2022-12-18T02:52:42;101503.50;;;-0.08;88.67
46211;BME280;52144;48.040;-1.594;2022-12-18T02:55:20;101501.19;;;0.24;87.29
46211;BME280;52144;48.040;-1.594;2022-12-18T02:57:57;101491.28;;;-0.06;89.08
46211;BME280;52144;48.040;-1.594;2022-12-18T03:00:30;101492.34;;;0.08;87.75
46211;BME280;52144;48.040;-1.594;2022-12-18T03:03:05;101486.97;;;-0.03;88.82
46211;BME280;52144;48.040;-1.594;2022-12-18T03:05:39;101484.41;;;0.04;88.18
46211;BME280;52144;48.040;-1.594;2022-12-18T03:08:13;101490.56;;;0.07;88.32
46211;BME280;52144;48.040;-1.594;2022-12-18T03:10:45;101490.53;;;0.03;87.55
46211;BME280;52144;48.040;-1.594;2022-12-18T03:13:21;101484.59;;;0.24;87.25
46211;BME280;52144;48.040;-1.594;2022-12-18T03:15:53;101484.63;;;0.25;87.40
46211;BME280;52144;48.040;-1.594;2022-12-18T03:18:24;101482.00;;;0.28;87.51
46211;BME280;52144;48.040;-1.594;2022-12-18T03:20:56;101489.78;;;0.17;87.61
46211;BME280;52144;48.040;-1.594;2022-12-18T03:23:29;101486.41;;;0.32;87.36
46211;BME280;52144;48.040;-1.594;2022-12-18T03:26:02;101483.19;;;0.66;85.00
46211;BME280;52144;48.040;-1.594;2022-12-18T03:28:37;101492.56;;;0.36;86.05
46211;BME280;52144;48.040;-1.594;2022-12-18T03:31:08;101491.81;;;0.49;85.91
46211;BME280;52144;48.040;-1.594;2022-12-18T03:33:41;101489.13;;;0.42;86.31
46211;BME280;52144;48.040;-1.594;2022-12-18T03:36:11;101488.34;;;0.56;85.39
46211;BME280;52144;48.040;-1.594;2022-12-18T03:38:39;101495.31;;;0.50;86.53
46211;BME280;52144;48.040;-1.594;2022-12-18T03:41:13;101495.34;;;0.51;86.46
46211;BME280;52144;48.040;-1.594;2022-12-18T03:43:49;101483.97;;;0.54;85.94
46211;BME280;52144;48.040;-1.594;2022-12-18T03:46:26;101483.69;;;0.18;87.73
46211;BME280;52144;48.040;-1.594;2022-12-18T03:48:59;101482.84;;;0.24;88.07
46211;BME280;52144;48.040;-1.594;2022-12-18T03:51:31;101490.66;;;0.15;89.44
46211;BME280;52144;48.040;-1.594;2022-12-18T03:54:03;101489.03;;;0.29;90.25
46211;BME280;52144;48.040;-1.594;2022-12-18T03:56:36;101506.75;;;0.58;87.98
46211;BME280;52144;48.040;-1.594;2022-12-18T03:59:08;101492.66;;;0.47;87.10
46211;BME280;52144;48.040;-1.594;2022-12-18T04:01:40;101491.00;;;0.61;86.33
46211;BME280;52144;48.040;-1.594;2022-12-18T04:04:10;101494.66;;;0.78;85.63
46211;BME280;52144;48.040;-1.594;2022-12-18T04:06:39;101496.25;;;0.61;87.20
46211;BME280;52144;48.040;-1.594;2022-12-18T04:09:09;101492.75;;;0.56;85.65
46211;BME280;52144;48.040;-1.594;2022-12-18T04:11:37;101498.81;;;0.52;87.22
46211;BME280;52144;48.040;-1.594;2022-12-18T04:14:04;101497.25;;;0.74;86.60
46211;BME280;52144;48.040;-1.594;2022-12-18T04:16:34;101488.50;;;0.73;87.09
46211;BME280;52144;48.040;-1.594;2022-12-18T04:19:02;101495.38;;;0.60;87.03
46211;BME280;52144;48.040;-1.594;2022-12-18T04:21:30;101495.38;;;0.60;87.74
46211;BME280;52144;48.040;-1.594;2022-12-18T04:23:58;101503.19;;;0.53;86.72
46211;BME280;52144;48.040;-1.594;2022-12-18T04:26:26;101506.44;;;0.24;87.10
46211;BME280;52144;48.040;-1.594;2022-12-18T04:28:54;101514.28;;;0.19;88.25
46211;BME280;52144;48.040;-1.594;2022-12-18T04:31:21;101512.78;;;0.48;87.44
46211;BME280;52144;48.040;-1.594;2022-12-18T04:33:51;101518.25;;;0.78;87.81
46211;BME280;52144;48.040;-1.594;2022-12-18T04:36:19;101519.97;;;0.72;86.81
46211;BME280;52144;48.040;-1.594;2022-12-18T04:38:46;101510.16;;;0.51;88.36
46211;BME280;52144;48.040;-1.594;2022-12-18T04:41:14;101517.38;;;0.73;87.72
46211;BME280;52144;48.040;-1.594;2022-12-18T04:43:42;101505.22;;;0.91;86.66
46211;BME280;52144;48.040;-1.594;2022-12-18T04:46:10;101501.66;;;0.79;86.10
46211;BME280;52144;48.040;-1.594;2022-12-18T04:48:38;101503.47;;;0.88;86.22
46211;BME280;52144;48.040;-1.594;2022-12-18T04:51:07;101499.78;;;0.63;87.91
46211;BME280;52144;48.040;-1.594;2022-12-18T04:53:35;101492.88;;;0.71;87.43
46211;BME280;52144;48.040;-1.594;2022-12-18T04:56:05;101489.22;;;0.57;87.60
46211;BME280;52144;48.040;-1.594;2022-12-18T04:58:33;101490.91;;;0.46;89.55
46211;BME280;52144;48.040;-1.594;2022-12-18T05:01:01;101498.09;;;0.73;87.61
46211;BME280;52144;48.040;-1.594;2022-12-18T05:03:30;101487.69;;;0.87;87.37
46211;BME280;52144;48.040;-1.594;2022-12-18T05:05:58;101484.09;;;0.69;86.74
46211;BME280;52144;48.040;-1.594;2022-12-18T05:08:27;101479.81;;;0.87;86.72
46211;BME280;52144;48.040;-1.594;2022-12-18T05:10:58;101478.75;;;0.57;88.26
46211;BME280;52144;48.040;-1.594;2022-12-18T05:13:27;101483.97;;;0.54;89.66
46211;BME280;52144;48.040;-1.594;2022-12-18T05:15:55;101485.06;;;0.85;88.84
46211;BME280;52144;48.040;-1.594;2022-12-18T05:18:23;101477.91;;;0.61;88.59
46211;BME280;52144;48.040;-1.594;2022-12-18T05:20:52;101474.59;;;0.88;87.77
46211;BME280;52144;48.040;-1.594;2022-12-18T05:23:21;101471.97;;;0.88;87.94
46211;BME280;52144;48.040;-1.594;2022-12-18T05:25:52;101475.50;;;0.92;87.34
46211;BME280;52144;48.040;-1.594;2022-12-18T05:28:22;101462.44;;;1.04;86.39
46211;BME280;52144;48.040;-1.594;2022-12-18T05:30:50;101463.09;;;0.68;88.77
46211;BME280;52144;48.040;-1.594;2022-12-18T05:33:18;101449.09;;;0.66;88.44
46211;BME280;52144;48.040;-1.594;2022-12-18T05:35:50;101445.44;;;0.47;90.56
46211;BME280;52144;48.040;-1.594;2022-12-18T05:38:18;101442.19;;;0.82;89.15
46211;BME280;52144;48.040;-1.594;2022-12-18T05:40:47;101441.47;;;1.12;87.52
46211;BME280;52144;48.040;-1.594;2022-12-18T05:43:17;101427.38;;;0.94;87.94
46211;BME280;52144;48.040;-1.594;2022-12-18T05:45:47;101423.84;;;0.82;88.35
46211;BME280;52144;48.040;-1.594;2022-12-18T05:48:16;101424.84;;;1.08;87.86
46211;BME280;52144;48.040;-1.594;2022-12-18T05:50:45;101421.31;;;1.03;87.13
46211;BME280;52144;48.040;-1.594;2022-12-18T05:53:14;101427.44;;;1.10;87.69
46211;BME280;52144;48.040;-1.594;2022-12-18T05:55:43;101430.13;;;1.20;88.28
46211;BME280;52144;48.040;-1.594;2022-12-18T05:58:12;101426.69;;;1.35;87.54
46211;BME280;52144;48.040;-1.594;2022-12-18T06:00:44;101416.94;;;1.02;88.63
46211;BME280;52144;48.040;-1.594;2022-12-18T06:03:13;101409.09;;;1.08;87.86
46211;BME280;52144;48.040;-1.594;2022-12-18T06:05:42;101401.16;;;0.99;89.88
46211;BME280;52144;48.040;-1.594;2022-12-18T06:08:11;101395.97;;;1.11;89.81
46211;BME280;52144;48.040;-1.594;2022-12-18T06:10:40;101394.22;;;1.18;90.32
46211;BME280;52144;48.040;-1.594;2022-12-18T06:13:08;101391.66;;;1.29;89.62
46211;BME280;52144;48.040;-1.594;2022-12-18T06:15:36;101398.59;;;1.11;90.36
46211;BME280;52144;48.040;-1.594;2022-12-18T06:18:05;101398.63;;;1.14;89.09
46211;BME280;52144;48.040;-1.594;2022-12-18T06:20:33;101389.00;;;1.30;89.94
46211;BME280;52144;48.040;-1.594;2022-12-18T06:23:03;101386.41;;;1.35;88.21
46211;BME280;52144;48.040;-1.594;2022-12-18T06:25:31;101382.81;;;1.05;90.44
46211;BME280;52144;48.040;-1.594;2022-12-18T06:27:59;101387.22;;;1.12;90.88
46211;BME280;52144;48.040;-1.594;2022-12-18T06:30:27;101390.66;;;0.97;92.02
46211;BME280;52144;48.040;-1.594;2022-12-18T06:32:55;101386.31;;;1.07;90.90
46211;BME280;52144;48.040;-1.594;2022-12-18T06:35:24;101384.72;;;1.49;89.45
46211;BME280;52144;48.040;-1.594;2022-12-18T06:37:52;101389.06;;;1.44;89.27
46211;BME280;52144;48.040;-1.594;2022-12-18T06:40:20;101393.28;;;0.99;92.02
46211;BME280;52144;48.040;-1.594;2022-12-18T06:42:49;101394.16;;;1.01;92.24
46211;BME280;52144;48.040;-1.594;2022-12-18T06:45:17;101390.75;;;1.19;91.71
46211;BME280;52144;48.040;-1.594;2022-12-18T06:47:45;101395.19;;;1.43;91.84
46211;BME280;52144;48.040;-1.594;2022-12-18T06:50:13;101403.06;;;1.43;90.39
46211;BME280;52144;48.040;-1.594;2022-12-18T06:52:42;101402.22;;;1.56;90.80
46211;BME280;52144;48.040;-1.594;2022-12-18T06:55:11;101390.00;;;1.69;90.09
46211;BME280;52144;48.040;-1.594;2022-12-18T06:57:38;101393.50;;;1.76;91.50
46211;BME280;52144;48.040;-1.594;2022-12-18T07:00:07;101390.88;;;1.65;91.77
46211;BME280;52144;48.040;-1.594;2022-12-18T07:02:35;101380.38;;;1.87;91.32
46211;BME280;52144;48.040;-1.594;2022-12-18T07:05:04;101384.72;;;1.57;93.80
46211;BME280;52144;48.040;-1.594;2022-12-18T07:07:36;101398.72;;;1.67;92.58
46211;BME280;52144;48.040;-1.594;2022-12-18T07:10:06;101395.25;;;1.68;93.45
46211;BME280;52144;48.040;-1.594;2022-12-18T07:12:34;101400.50;;;1.95;92.97
46211;BME280;52144;48.040;-1.594;2022-12-18T07:15:02;101393.53;;;2.16;91.22
46211;BME280;52144;48.040;-1.594;2022-12-18T07:17:30;101393.53;;;2.00;91.88
46211;BME280;52144;48.040;-1.594;2022-12-18T07:19:58;101389.09;;;1.55;95.93
46211;BME280;52144;48.040;-1.594;2022-12-18T07:22:25;101388.28;;;1.97;95.03
46211;BME280;52144;48.040;-1.594;2022-12-18T07:24:53;101381.25;;;2.13;94.63
46211;BME280;52144;48.040;-1.594;2022-12-18T07:27:23;101378.63;;;2.04;94.50
46211;BME280;52144;48.040;-1.594;2022-12-18T07:29:50;101393.53;;;2.20;93.89
46211;BME280;52144;48.040;-1.594;2022-12-18T07:32:18;101389.97;;;2.41;94.18
46211;BME280;52144;48.040;-1.594;2022-12-18T07:34:46;101390.00;;;2.38;93.80
46211;BME280;52144;48.040;-1.594;2022-12-18T07:37:14;101385.63;;;2.11;95.38
46211;BME280;52144;48.040;-1.594;2022-12-18T07:39:42;101387.34;;;2.28;96.16
46211;BME280;52144;48.040;-1.594;2022-12-18T07:42:09;101380.31;;;2.48;94.28
46211;BME280;52144;48.040;-1.594;2022-12-18T07:44:56;101385.63;;;2.25;96.83
46211;BME280;52144;48.040;-1.594;2022-12-18T07:47:24;101380.34;;;2.31;97.54
46211;BME280;52144;48.040;-1.594;2022-12-18T07:49:52;101378.56;;;2.55;97.29
46211;BME280;52144;48.040;-1.594;2022-12-18T07:52:20;101382.09;;;2.29;99.45
46211;BME280;52144;48.040;-1.594;2022-12-18T07:54:51;101373.28;;;2.67;98.32
46211;BME280;52144;48.040;-1.594;2022-12-18T07:57:19;101371.56;;;2.49;98.74
46211;BME280;52144;48.040;-1.594;2022-12-18T08:00:10;101364.53;;;2.53;98.67
46211;BME280;52144;48.040;-1.594;2022-12-18T08:02:38;101355.78;;;2.43;99.53
46211;BME280;52144;48.040;-1.594;2022-12-18T08:05:08;101361.06;;;2.38;100.00
46211;BME280;52144;48.040;-1.594;2022-12-18T08:07:36;101354.91;;;2.39;100.00
46211;BME280;52144;48.040;-1.594;2022-12-18T08:10:04;101369.75;;;2.64;100.00
46211;BME280;52144;48.040;-1.594;2022-12-18T08:12:32;101374.13;;;2.72;99.77
46211;BME280;52144;48.040;-1.594;2022-12-18T08:15:00;101375.94;;;2.50;100.00
46211;BME280;52144;48.040;-1.594;2022-12-18T08:17:30;101372.41;;;2.64;100.00
46211;BME280;52144;48.040;-1.594;2022-12-18T08:19:58;101379.38;;;2.74;100.00
46211;BME280;52144;48.040;-1.594;2022-12-18T08:22:25;101376.72;;;2.78;100.00
46211;BME280;52144;48.040;-1.594;2022-12-18T08:24:53;101368.00;;;2.73;100.00
46211;BME280;52144;48.040;-1.594;2022-12-18T08:27:21;101374.19;;;2.57;100.00
46211;BME280;52144;48.040;-1.594;2022-12-18T08:29:56;101368.03;;;2.58;100.00
46211;BME280;52144;48.040;-1.594;2022-12-18T08:32:25;101353.94;;;2.77;100.00
46211;BME280;52144;48.040;-1.594;2022-12-18T08:34:54;101356.50;;;2.93;100.00
46211;BME280;52144;48.040;-1.594;2022-12-18T08:37:22;101363.56;;;2.80;100.00
46211;BME280;52144;48.040;-1.594;2022-12-18T08:39:50;101356.47;;;2.99;100.00
46211;BME280;52144;48.040;-1.594;2022-12-18T08:42:18;101358.31;;;2.78;100.00
46211;BME280;52144;48.040;-1.594;2022-12-18T08:45:03;101355.72;;;2.71;100.00
46211;BME280;52144;48.040;-1.594;2022-12-18T08:47:31;101363.56;;;2.81;100.00
46211;BME280;52144;48.040;-1.594;2022-12-18T08:50:00;101355.72;;;2.68;100.00
46211;BME280;52144;48.040;-1.594;2022-12-18T08:52:28;101359.06;;;3.07;100.00
46211;BME280;52144;48.040;-1.594;2022-12-18T08:54:58;101353.03;;;2.85;100.00
46211;BME280;52144;48.040;-1.594;2022-12-18T08:57:26;101362.59;;;3.03;100.00
46211;BME280;52144;48.040;-1.594;2022-12-18T08:59:54;101353.84;;;2.99;100.00
46211;BME280;52144;48.040;-1.594;2022-12-18T09:02:22;101352.03;;;3.07;100.00
46211;BME280;52144;48.040;-1.594;2022-12-18T09:04:50;101344.09;;;3.16;100.00
46211;BME280;52144;48.040;-1.594;2022-12-18T09:07:24;101345.00;;;3.12;100.00
46211;BME280;52144;48.040;-1.594;2022-12-18T09:09:52;101350.25;;;3.17;100.00
46211;BME280;52144;48.040;-1.594;2022-12-18T09:12:20;101352.00;;;3.18;100.00
46211;BME280;52144;48.040;-1.594;2022-12-18T09:14:47;101348.41;;;3.36;100.00
46211;BME280;52144;48.040;-1.594;2022-12-18T09:17:15;101352.84;;;3.23;100.00
46211;BME280;52144;48.040;-1.594;2022-12-18T09:19:43;101351.06;;;3.27;100.00
46211;BME280;52144;48.040;-1.594;2022-12-18T09:22:11;101346.66;;;3.27;100.00
46211;BME280;52144;48.040;-1.594;2022-12-18T09:24:40;101359.03;;;3.11;100.00
46211;BME280;52144;48.040;-1.594;2022-12-18T09:27:08;101362.50;;;3.22;100.00
46211;BME280;52144;48.040;-1.594;2022-12-18T09:29:36;101363.28;;;3.43;100.00
46211;BME280;52144;48.040;-1.594;2022-12-18T09:32:04;101366.72;;;3.54;100.00
46211;BME280;52144;48.040;-1.594;2022-12-18T09:34:32;101369.31;;;3.59;100.00
46211;BME280;52144;48.040;-1.594;2022-12-18T09:37:00;101375.50;;;3.55;100.00
46211;BME280;52144;48.040;-1.594;2022-12-18T09:39:28;101386.09;;;3.47;99.25
46211;BME280;52144;48.040;-1.594;2022-12-18T09:41:58;101386.94;;;3.52;100.00
46211;BME280;52144;48.040;-1.594;2022-12-18T09:44:28;101384.28;;;3.58;100.00
46211;BME280;52144;48.040;-1.594;2022-12-18T09:47:03;101380.72;;;3.63;100.00
46211;BME280;52144;48.040;-1.594;2022-12-18T09:49:38;101376.25;;;3.72;100.00
46211;BME280;52144;48.040;-1.594;2022-12-18T09:52:13;101377.09;;;3.76;100.00
46211;BME280;52144;48.040;-1.594;2022-12-18T09:54:46;101372.66;;;3.84;100.00
46211;BME280;52144;48.040;-1.594;2022-12-18T09:57:20;101376.19;;;3.80;100.00
46211;BME280;52144;48.040;-1.594;2022-12-18T09:59:53;101366.50;;;3.85;100.00
46211;BME280;52144;48.040;-1.594;2022-12-18T10:02:24;101360.38;;;3.83;100.00
46211;BME280;52144;48.040;-1.594;2022-12-18T10:05:03;101352.59;;;3.65;100.00
46211;BME280;52144;48.040;-1.594;2022-12-18T10:07:40;101356.81;;;3.86;100.00
46211;BME280;52144;48.040;-1.594;2022-12-18T10:10:18;101351.66;;;3.70;100.00
46211;BME280;52144;48.040;-1.594;2022-12-18T10:12:54;101342.84;;;3.76;100.00
46211;BME280;52144;48.040;-1.594;2022-12-18T10:15:34;101329.75;;;3.67;100.00
46211;BME280;52144;48.040;-1.594;2022-12-18T10:18:06;101334.09;;;3.71;100.00
46211;BME280;52144;48.040;-1.594;2022-12-18T10:20:49;101329.66;;;3.79;100.00
46211;BME280;52144;48.040;-1.594;2022-12-18T10:23:23;101328.78;;;3.74;100.00
46211;BME280;52144;48.040;-1.594;2022-12-18T10:25:59;101322.75;;;3.63;100.00
46211;BME280;52144;48.040;-1.594;2022-12-18T10:28:32;101323.56;;;3.71;100.00
46211;BME280;52144;48.040;-1.594;2022-12-18T10:31:00;101317.44;;;3.66;100.00
46211;BME280;52144;48.040;-1.594;2022-12-18T10:33:30;101316.53;;;3.70;100.00
46211;BME280;52144;48.040;-1.594;2022-12-18T10:35:59;101310.31;;;3.77;100.00
46211;BME280;52144;48.040;-1.594;2022-12-18T10:38:28;101310.22;;;3.89;100.00
46211;BME280;52144;48.040;-1.594;2022-12-18T10:40:58;101308.50;;;3.82;100.00
46211;BME280;52144;48.040;-1.594;2022-12-18T10:43:28;101298.91;;;3.75;100.00
46211;BME280;52144;48.040;-1.594;2022-12-18T10:46:12;101306.94;;;3.63;100.00
46211;BME280;52144;48.040;-1.594;2022-12-18T10:48:53;101296.28;;;3.72;100.00
46211;BME280;52144;48.040;-1.594;2022-12-18T10:51:24;101294.63;;;3.65;100.00
46211;BME280;52144;48.040;-1.594;2022-12-18T10:53:55;101291.97;;;3.65;100.00
46211;BME280;52144;48.040;-1.594;2022-12-18T10:56:26;101300.66;;;3.77;100.00
46211;BME280;52144;48.040;-1.594;2022-12-18T10:59:00;101297.16;;;3.74;100.00
46211;BME280;52144;48.040;-1.594;2022-12-18T11:01:46;101283.78;;;3.95;100.00
46211;BME280;52144;48.040;-1.594;2022-12-18T11:04:18;101282.03;;;3.97;100.00
46211;BME280;52144;48.040;-1.594;2022-12-18T11:06:58;101284.72;;;3.91;100.00
46211;BME280;52144;48.040;-1.594;2022-12-18T11:09:28;101276.75;;;3.99;100.00
46211;BME280;52144;48.040;-1.594;2022-12-18T11:11:59;101269.63;;;4.04;100.00
46211;BME280;52144;48.040;-1.594;2022-12-18T11:14:30;101263.44;;;4.07;100.00
46211;BME280;52144;48.040;-1.594;2022-12-18T11:17:01;101266.88;;;4.15;100.00
46211;BME280;52144;48.040;-1.594;2022-12-18T11:19:52;101271.28;;;4.16;100.00
46211;BME280;52144;48.040;-1.594;2022-12-18T11:22:24;101269.50;;;4.15;100.00
46211;BME280;52144;48.040;-1.594;2022-12-18T11:24:55;101263.81;;;4.53;100.00
46211;BME280;52144;48.040;-1.594;2022-12-18T11:27:48;101259.53;;;4.43;100.00
46211;BME280;52144;48.040;-1.594;2022-12-18T11:30:22;101256.72;;;4.57;100.00
46211;BME280;52144;48.040;-1.594;2022-12-18T11:32:54;101249.84;;;4.43;100.00
46211;BME280;52144;48.040;-1.594;2022-12-18T11:35:31;101248.06;;;4.47;100.00
46211;BME280;52144;48.040;-1.594;2022-12-18T11:38:04;101250.53;;;4.61;100.00
46211;BME280;52144;48.040;-1.594;2022-12-18T11:40:36;101244.97;;;4.81;100.00
46211;BME280;52144;48.040;-1.594;2022-12-18T11:43:11;101248.63;;;4.71;100.00
46211;BME280;52144;48.040;-1.594;2022-12-18T11:45:47;101250.53;;;4.58;100.00
46211;BME280;52144;48.040;-1.594;2022-12-18T11:48:22;101235.75;;;4.46;100.00
46211;BME280;52144;48.040;-1.594;2022-12-18T11:50:52;101233.81;;;4.62;100.00
46211;BME280;52144;48.040;-1.594;2022-12-18T11:53:21;101219.31;;;4.24;100.00
46211;BME280;52144;48.040;-1.594;2022-12-18T11:56:05;101216.38;;;4.49;100.00
46211;BME280;52144;48.040;-1.594;2022-12-18T11:58:45;101216.03;;;4.73;100.00
46211;BME280;52144;48.040;-1.594;2022-12-18T12:01:33;101199.59;;;4.53;100.00
46211;BME280;52144;48.040;-1.594;2022-12-18T12:04:41;101190.13;;;4.36;100.00
46211;BME280;52144;48.040;-1.594;2022-12-18T12:07:21;101186.81;;;4.19;100.00
46211;BME280;52144;48.040;-1.594;2022-12-18T12:10:00;101170.03;;;4.26;100.00
46211;BME280;52144;48.040;-1.594;2022-12-18T12:12:39;101155.50;;;4.59;100.00
46211;BME280;52144;48.040;-1.594;2022-12-18T12:15:23;101168.09;;;4.42;100.00
46211;BME280;52144;48.040;-1.594;2022-12-18T12:18:01;101162.56;;;4.59;100.00
46211;BME280;52144;48.040;-1.594;2022-12-18T12:20:48;101162.75;;;4.45;100.00
46211;BME280;52144;48.040;-1.594;2022-12-18T12:23:25;101176.50;;;4.69;100.00
46211;BME280;52144;48.040;-1.594;2022-12-18T12:25:58;101183.97;;;5.01;100.00
46211;BME280;52144;48.040;-1.594;2022-12-18T12:28:50;101180.88;;;4.71;100.00
46211;BME280;52144;48.040;-1.594;2022-12-18T12:31:30;101174.38;;;4.94;100.00
46211;BME280;52144;48.040;-1.594;2022-12-18T12:34:08;101176.41;;;4.75;100.00
46211;BME280;52144;48.040;-1.594;2022-12-18T12:36:53;101161.06;;;5.00;100.00
46211;BME280;52144;48.040;-1.594;2022-12-18T12:39:29;101148.88;;;4.93;100.00
46211;BME280;52144;48.040;-1.594;2022-12-18T12:41:59;101141.28;;;4.70;100.00
46211;BME280;52144;48.040;-1.594;2022-12-18T12:44:47;101130.88;;;4.60;100.00
46211;BME280;52144;48.040;-1.594;2022-12-18T12:47:26;101139.50;;;4.72;100.00
46211;BME280;52144;48.040;-1.594;2022-12-18T12:49:56;101141.09;;;4.82;100.00
46211;BME280;52144;48.040;-1.594;2022-12-18T12:52:32;101143.81;;;4.77;100.00
46211;BME280;52144;48.040;-1.594;2022-12-18T12:55:04;101146.41;;;4.80;100.00
46211;BME280;52144;48.040;-1.594;2022-12-18T12:57:43;101136.63;;;4.89;100.00
46211;BME280;52144;48.040;-1.594;2022-12-18T13:00:16;101133.31;;;4.74;100.00
46211;BME280;52144;48.040;-1.594;2022-12-18T13:02:54;101124.06;;;5.03;100.00
46211;BME280;52144;48.040;-1.594;2022-12-18T13:05:28;101120.78;;;4.89;100.00
46211;BME280;52144;48.040;-1.594;2022-12-18T13:08:04;101118.50;;;5.18;100.00